createdAt,value
2023-01-28T00:01:27.735Z,5.20
2023-01-28T00:03:55.051Z,7.90
2023-01-28T00:06:22.273Z,7.70
2023-01-28T00:08:49.555Z,11.70
2023-01-28T00:11:16.754Z,7.50
2023-01-28T00:13:44.744Z,7.40
2023-01-28T00:16:12.109Z,8.10
2023-01-28T00:18:39.263Z,8.70
2023-01-28T00:21:07.786Z,5.40
2023-01-28T00:23:37.258Z,5.40
2023-01-28T00:26:07.174Z,5.90
2023-01-28T00:28:34.461Z,7.20
2023-01-28T00:31:10.146Z,10.80
2023-01-28T00:33:37.520Z,12.60
2023-01-28T00:36:06.694Z,10.10
2023-01-28T00:38:34.519Z,7.40
2023-01-28T00:41:15.916Z,11.50
2023-01-28T00:43:45.036Z,20.30
2023-01-28T00:46:14.143Z,10.90
2023-01-28T00:48:43.269Z,6.60
2023-01-28T00:51:12.240Z,7.50
2023-01-28T00:53:40.102Z,8.20
2023-01-28T00:56:09.334Z,8.00
2023-01-28T00:58:36.525Z,5.90
2023-01-28T01:01:12.509Z,6.40
2023-01-28T01:03:40.227Z,4.80
2023-01-28T01:06:09.030Z,4.70
2023-01-28T01:08:40.114Z,9.50
2023-01-28T01:11:08.865Z,8.30
2023-01-28T01:13:37.007Z,5.50
2023-01-28T01:16:12.173Z,5.20
2023-01-28T01:18:42.074Z,6.70
2023-01-28T01:21:13.491Z,4.90
2023-01-28T01:23:41.168Z,5.30
2023-01-28T01:26:08.376Z,4.50
2023-01-28T01:28:35.553Z,5.10
2023-01-28T01:31:08.512Z,4.70
2023-01-28T01:33:35.740Z,4.50
2023-01-28T01:36:02.930Z,4.60
2023-01-28T01:38:30.243Z,5.00
2023-01-28T01:41:01.291Z,4.80
2023-01-28T01:43:48.975Z,5.10
2023-01-28T01:46:37.398Z,4.30
2023-01-28T01:49:16.213Z,4.90
2023-01-28T01:51:46.425Z,3.70
2023-01-28T01:54:14.502Z,5.30
2023-01-28T01:56:44.870Z,5.80
2023-01-28T01:59:15.654Z,5.30
2023-01-28T02:01:45.854Z,5.30
2023-01-28T02:04:26.815Z,5.10
2023-01-28T02:06:54.113Z,4.80
2023-01-28T02:09:34.437Z,5.10
2023-01-28T02:12:07.361Z,5.30
2023-01-28T02:14:38.177Z,5.10
2023-01-28T02:17:05.678Z,5.60
2023-01-28T02:19:42.004Z,5.00
2023-01-28T02:22:24.746Z,4.60
2023-01-28T02:24:59.300Z,4.00
2023-01-28T02:27:32.429Z,5.50
2023-01-28T02:30:03.883Z,4.50
2023-01-28T02:32:39.125Z,5.10
2023-01-28T02:37:47.137Z,5.10
2023-01-28T02:40:20.612Z,5.10
2023-01-28T02:42:48.664Z,7.00
2023-01-28T02:45:21.034Z,5.40
2023-01-28T02:48:00.616Z,5.80
2023-01-28T02:50:48.160Z,5.90
2023-01-28T02:53:37.104Z,5.40
2023-01-28T02:56:31.413Z,5.00
2023-01-28T02:59:31.362Z,5.00
2023-01-28T03:02:05.386Z,4.30
2023-01-28T03:04:41.541Z,4.80
2023-01-28T03:07:10.247Z,4.50
2023-01-28T03:09:42.175Z,4.70
2023-01-28T03:12:33.099Z,5.00
2023-01-28T03:15:29.572Z,5.70
2023-01-28T03:18:28.199Z,6.80
2023-01-28T03:21:20.793Z,5.10
2023-01-28T03:24:09.408Z,5.50
2023-01-28T03:27:20.575Z,5.60
2023-01-28T03:30:16.090Z,6.50
2023-01-28T03:33:03.473Z,9.10
2023-01-28T03:35:53.444Z,9.30
2023-01-28T03:38:23.122Z,8.90
2023-01-28T03:41:00.540Z,5.80
2023-01-28T03:43:29.199Z,5.60
2023-01-28T03:45:56.959Z,5.20
2023-01-28T03:48:27.027Z,5.10
2023-01-28T03:50:56.326Z,5.60
2023-01-28T03:53:23.899Z,5.90
2023-01-28T03:55:53.414Z,5.50
2023-01-28T03:58:21.481Z,5.60
2023-01-28T04:00:48.795Z,6.00
2023-01-28T04:03:18.739Z,6.00
2023-01-28T04:06:01.968Z,5.60
2023-01-28T04:08:49.083Z,6.00
2023-01-28T04:11:30.284Z,6.10
2023-01-28T04:13:58.712Z,5.30
2023-01-28T04:16:27.758Z,4.90
2023-01-28T04:18:55.392Z,4.90
2023-01-28T04:21:22.548Z,4.90
2023-01-28T04:23:49.877Z,4.50
2023-01-28T04:26:17.046Z,5.00
2023-01-28T04:28:44.284Z,4.80
2023-01-28T04:31:11.548Z,4.90
2023-01-28T04:33:41.542Z,5.50
2023-01-28T04:36:31.231Z,5.70
2023-01-28T04:39:22.418Z,5.60
2023-01-28T04:42:17.514Z,5.40
2023-01-28T04:44:55.908Z,5.80
2023-01-28T04:47:38.606Z,5.70
2023-01-28T04:50:31.072Z,6.20
2023-01-28T04:53:18.956Z,6.00
2023-01-28T04:55:59.583Z,5.40
2023-01-28T04:58:29.903Z,5.90
2023-01-28T05:01:01.480Z,5.70
2023-01-28T05:03:29.442Z,6.20
2023-01-28T05:05:57.103Z,5.30
2023-01-28T05:11:20.619Z,6.10
2023-01-28T05:13:51.711Z,6.20
2023-01-28T05:16:20.051Z,10.70
2023-01-28T05:18:48.266Z,7.00
2023-01-28T05:21:18.482Z,7.10
2023-01-28T05:23:48.894Z,6.80
2023-01-28T05:26:17.018Z,5.90
2023-01-28T05:28:49.603Z,5.70
2023-01-28T05:31:17.000Z,5.60
2023-01-28T05:33:45.091Z,11.90
2023-01-28T05:36:13.167Z,7.40
2023-01-28T05:38:40.995Z,6.50
2023-01-28T05:41:08.145Z,8.90
2023-01-28T05:43:36.075Z,10.00
2023-01-28T05:46:18.881Z,17.60
2023-01-28T05:49:02.961Z,17.20
2023-01-28T05:51:50.324Z,11.00
2023-01-28T05:54:20.349Z,12.80
2023-01-28T05:56:48.277Z,36.60
2023-01-28T05:59:15.510Z,29.30
2023-01-28T06:01:44.218Z,24.40
2023-01-28T06:04:11.577Z,30.50
2023-01-28T06:06:39.390Z,17.30
2023-01-28T06:09:06.786Z,15.20
2023-01-28T06:11:35.440Z,15.80
2023-01-28T06:14:04.393Z,10.90
2023-01-28T06:16:43.156Z,9.00
2023-01-28T06:19:27.263Z,7.00
2023-01-28T06:21:54.479Z,7.40
2023-01-28T06:24:21.870Z,9.40
2023-01-28T06:26:49.032Z,9.70
2023-01-28T06:29:16.260Z,10.60
2023-01-28T06:31:43.513Z,15.90
2023-01-28T06:34:10.913Z,14.00
2023-01-28T06:36:41.065Z,11.30
2023-01-28T06:39:08.350Z,9.40
2023-01-28T06:41:35.439Z,9.80
2023-01-28T06:44:02.608Z,9.10
2023-01-28T06:46:29.831Z,8.40
2023-01-28T06:48:56.974Z,9.00
2023-01-28T06:51:24.181Z,10.50
2023-01-28T06:53:51.293Z,7.90
2023-01-28T06:56:18.436Z,7.10
2023-01-28T06:58:45.576Z,11.60
2023-01-28T07:01:13.180Z,12.10
2023-01-28T07:03:40.303Z,10.10
2023-01-28T07:06:07.599Z,11.10
2023-01-28T07:08:35.196Z,13.50
2023-01-28T07:11:02.439Z,9.10
2023-01-28T07:13:29.554Z,8.90
2023-01-28T07:15:56.617Z,12.80
2023-01-28T07:18:23.711Z,10.50
2023-01-28T07:20:50.836Z,10.80
2023-01-28T07:23:17.946Z,9.30
2023-01-28T07:25:45.243Z,11.00
2023-01-28T07:28:13.154Z,13.20
2023-01-28T07:30:40.307Z,14.00
2023-01-28T07:33:07.830Z,7.90
2023-01-28T07:35:35.563Z,9.30
2023-01-28T07:38:02.514Z,9.90
2023-01-28T07:40:29.745Z,19.40
2023-01-28T07:42:57.148Z,20.50
2023-01-28T07:45:25.760Z,17.00
2023-01-28T07:47:59.374Z,16.80
2023-01-28T07:50:28.387Z,17.80
2023-01-28T07:52:56.501Z,19.90
2023-01-28T07:55:23.842Z,17.40
2023-01-28T07:57:56.796Z,113.70
2023-01-28T08:00:25.386Z,90.60
2023-01-28T08:02:57.313Z,75.00
2023-01-28T08:05:27.296Z,79.30
2023-01-28T08:07:54.570Z,104.30
2023-01-28T08:10:21.819Z,43.30
2023-01-28T08:12:56.086Z,19.80
2023-01-28T08:15:23.550Z,9.40
2023-01-28T08:17:50.982Z,9.10
2023-01-28T08:20:18.371Z,20.70
2023-01-28T08:22:45.699Z,17.40
2023-01-28T08:25:12.825Z,11.30
2023-01-28T08:27:40.079Z,19.40
2023-01-28T08:30:09.319Z,16.90
2023-01-28T08:32:37.373Z,51.80
2023-01-28T08:35:05.528Z,45.60
2023-01-28T08:37:32.700Z,27.20
2023-01-28T08:40:00.309Z,18.70
2023-01-28T08:42:27.696Z,16.50
2023-01-28T08:44:54.844Z,13.50
2023-01-28T08:47:21.977Z,11.70
2023-01-28T08:49:49.195Z,11.90
2023-01-28T08:52:16.347Z,13.00
2023-01-28T08:54:43.447Z,14.90
2023-01-28T08:57:10.655Z,12.20
2023-01-28T08:59:45.018Z,10.40
2023-01-28T09:02:30.364Z,13.20
2023-01-28T09:04:58.494Z,42.80
2023-01-28T09:07:25.669Z,33.20
2023-01-28T09:09:52.918Z,26.90
2023-01-28T09:12:20.272Z,17.10
2023-01-28T09:14:47.426Z,15.70
2023-01-28T09:17:14.524Z,13.00
2023-01-28T09:19:41.699Z,10.20
2023-01-28T09:22:08.982Z,22.40
2023-01-28T09:24:38.637Z,61.80
2023-01-28T09:27:06.095Z,85.80
2023-01-28T09:29:37.498Z,95.20
2023-01-28T09:32:05.706Z,62.00
2023-01-28T09:34:33.178Z,48.30
2023-01-28T09:37:00.664Z,25.70
2023-01-28T09:39:28.681Z,14.80
2023-01-28T09:42:06.462Z,13.10
2023-01-28T09:45:13.290Z,14.40
2023-01-28T09:47:44.792Z,14.40
2023-01-28T09:50:32.088Z,43.90
2023-01-28T09:53:16.470Z,75.30
2023-01-28T09:55:48.172Z,277.00
2023-01-28T09:58:17.960Z,116.00
2023-01-28T10:01:22.363Z,34.90
2023-01-28T10:04:27.257Z,29.80
2023-01-28T10:07:17.314Z,16.80
2023-01-28T10:09:47.407Z,11.40
2023-01-28T10:12:39.747Z,10.60
2023-01-28T10:15:25.619Z,39.50
2023-01-28T10:18:14.751Z,23.00
2023-01-28T10:21:22.305Z,75.30
2023-01-28T10:24:08.183Z,33.30
2023-01-28T10:29:35.352Z,46.90
2023-01-28T10:32:29.800Z,48.20
2023-01-28T10:35:03.125Z,36.20
2023-01-28T10:37:39.498Z,26.20
2023-01-28T10:40:15.376Z,33.00
2023-01-28T10:42:43.313Z,101.60
2023-01-28T10:45:30.125Z,40.30
2023-01-28T10:48:24.002Z,53.40
2023-01-28T10:51:01.953Z,30.30
2023-01-28T10:53:44.170Z,38.80
2023-01-28T10:56:28.619Z,36.20
2023-01-28T10:59:07.093Z,37.40
2023-01-28T11:01:49.221Z,21.30
2023-01-28T11:04:26.666Z,33.50
2023-01-28T11:06:58.876Z,26.90
2023-01-28T11:09:32.036Z,41.70
2023-01-28T11:12:10.423Z,27.60
2023-01-28T11:14:38.318Z,36.50
2023-01-28T11:17:13.194Z,45.10
2023-01-28T11:19:40.528Z,43.40
2023-01-28T11:22:27.058Z,60.50
2023-01-28T11:24:54.974Z,47.10
2023-01-28T11:27:28.991Z,27.90
2023-01-28T11:30:04.433Z,35.50
2023-01-28T11:32:31.808Z,23.00
2023-01-28T11:35:00.509Z,18.00
2023-01-28T11:37:29.432Z,13.00
2023-01-28T11:40:23.532Z,15.40
2023-01-28T11:42:52.645Z,54.50
2023-01-28T11:45:32.480Z,47.90
2023-01-28T11:48:19.843Z,26.20
2023-01-28T11:51:04.124Z,22.00
2023-01-28T11:53:54.978Z,79.90
2023-01-28T11:56:37.218Z,78.40
2023-01-28T11:59:21.279Z,55.80
2023-01-28T12:02:01.808Z,50.80
2023-01-28T12:05:04.659Z,58.50
2023-01-28T12:07:49.685Z,52.80
2023-01-28T12:10:58.053Z,42.40
2023-01-28T12:13:25.228Z,52.50
2023-01-28T12:16:13.823Z,60.30
2023-01-28T12:18:41.022Z,59.10
2023-01-28T12:21:25.017Z,54.80
2023-01-28T12:24:10.806Z,58.80
2023-01-28T12:26:50.012Z,45.90
2023-01-28T12:29:26.104Z,35.50
2023-01-28T12:32:31.704Z,26.00
2023-01-28T12:35:21.955Z,22.00
2023-01-28T12:37:59.431Z,21.10
2023-01-28T12:40:38.868Z,32.30
2023-01-28T12:43:20.979Z,27.80
2023-01-28T12:45:55.357Z,25.10
2023-01-28T12:48:33.118Z,23.10
2023-01-28T12:51:03.874Z,32.90
2023-01-28T12:53:36.687Z,27.20
2023-01-28T12:56:25.958Z,23.00
2023-01-28T12:59:02.655Z,16.60
2023-01-28T13:01:48.384Z,17.10
2023-01-28T13:04:32.131Z,14.60
2023-01-28T13:07:14.494Z,27.90
2023-01-28T13:09:50.042Z,34.40
2023-01-28T13:12:18.804Z,24.00
2023-01-28T13:14:46.594Z,29.50
2023-01-28T13:17:29.464Z,29.50
2023-01-28T13:19:58.201Z,47.00
2023-01-28T13:22:31.838Z,114.10
2023-01-28T13:25:28.155Z,86.40
2023-01-28T13:28:04.681Z,27.10
2023-01-28T13:30:34.767Z,38.30
2023-01-28T13:33:04.519Z,37.70
2023-01-28T13:35:37.567Z,87.30
2023-01-28T13:38:10.691Z,147.00
2023-01-28T13:40:40.741Z,88.30
2023-01-28T13:43:39.100Z,45.30
2023-01-28T13:46:10.686Z,29.20
2023-01-28T13:48:51.926Z,29.00
2023-01-28T13:51:29.840Z,21.60
2023-01-28T13:54:23.908Z,10.80
2023-01-28T13:56:59.996Z,14.20
2023-01-28T13:59:43.148Z,13.70
2023-01-28T14:02:16.364Z,18.90
2023-01-28T14:04:43.627Z,13.20
2023-01-28T14:07:29.414Z,8.90
2023-01-28T14:10:05.754Z,6.20
2023-01-28T14:12:57.410Z,7.40
2023-01-28T14:15:43.963Z,7.70
2023-01-28T14:18:26.972Z,10.50
2023-01-28T14:20:56.453Z,13.90
2023-01-28T14:23:26.775Z,8.60
2023-01-28T14:26:25.211Z,18.00
2023-01-28T14:29:14.001Z,9.00
2023-01-28T14:31:43.274Z,9.90
2023-01-28T14:34:16.758Z,8.10
2023-01-28T14:36:45.641Z,9.00
2023-01-28T14:39:18.060Z,13.50
2023-01-28T14:41:49.126Z,25.10
2023-01-28T14:44:39.658Z,42.10
2023-01-28T14:47:43.207Z,46.50
2023-01-28T14:50:13.003Z,49.30
2023-01-28T14:52:58.967Z,38.50
2023-01-28T14:55:53.507Z,19.40
2023-01-28T14:58:25.770Z,12.80
2023-01-28T15:00:58.745Z,19.40
2023-01-28T15:03:27.557Z,18.80
2023-01-28T15:06:14.360Z,18.00
2023-01-28T15:08:41.588Z,11.20
2023-01-28T15:11:13.531Z,33.10
2023-01-28T15:13:55.546Z,12.20
2023-01-28T15:16:28.640Z,51.30
2023-01-28T15:18:57.273Z,14.90
2023-01-28T15:21:27.265Z,11.30
2023-01-28T15:23:58.713Z,127.10
2023-01-28T15:26:32.879Z,29.80
2023-01-28T15:29:00.971Z,107.40
2023-01-28T15:31:34.874Z,161.80
2023-01-28T15:34:05.008Z,31.50
2023-01-28T15:36:32.657Z,18.40
2023-01-28T15:38:59.849Z,9.30
2023-01-28T15:41:39.287Z,27.90
2023-01-28T15:44:06.915Z,72.90
2023-01-28T15:46:34.109Z,66.60
2023-01-28T15:49:03.627Z,18.00
2023-01-28T15:51:34.109Z,31.60
2023-01-28T15:54:07.836Z,17.10
2023-01-28T15:56:36.599Z,124.40
2023-01-28T15:59:16.067Z,127.30
2023-01-28T16:01:43.940Z,108.80
2023-01-28T16:04:27.062Z,37.80
2023-01-28T16:06:56.564Z,11.10
2023-01-28T16:09:34.469Z,12.70
2023-01-28T16:12:05.840Z,5.10
2023-01-28T16:14:56.157Z,10.80
2023-01-28T16:17:28.252Z,528.60
2023-01-28T16:20:04.893Z,581.60
2023-01-28T16:22:31.974Z,282.20
2023-01-28T16:25:00.053Z,198.00
2023-01-28T16:27:32.406Z,40.40
2023-01-28T16:29:59.630Z,123.80
2023-01-28T16:32:40.031Z,189.90
2023-01-28T16:35:15.787Z,91.30
2023-01-28T16:37:43.419Z,213.70
2023-01-28T16:40:13.142Z,34.30
2023-01-28T16:42:40.332Z,17.10
2023-01-28T16:45:12.319Z,45.30
2023-01-28T16:47:39.471Z,24.00
2023-01-28T16:50:07.076Z,6.90
2023-01-28T16:52:34.155Z,4.30
2023-01-28T16:55:01.280Z,3.60
2023-01-28T16:57:28.843Z,5.20
2023-01-28T16:59:56.016Z,4.80
2023-01-28T17:02:23.149Z,4.50
2023-01-28T17:04:50.247Z,4.50
2023-01-28T17:07:17.392Z,5.40
2023-01-28T17:09:44.541Z,4.80
2023-01-28T17:12:11.666Z,13.40
2023-01-28T17:14:39.373Z,17.30
2023-01-28T17:17:06.608Z,12.60
2023-01-28T17:19:33.735Z,6.80
2023-01-28T17:22:01.137Z,5.30
2023-01-28T17:24:29.997Z,4.80
2023-01-28T17:26:57.197Z,4.40
2023-01-28T17:29:24.301Z,5.50
2023-01-28T17:31:51.425Z,6.10
2023-01-28T17:34:18.889Z,5.90
2023-01-28T17:36:46.013Z,6.10
2023-01-28T17:39:13.602Z,6.40
2023-01-28T17:41:40.766Z,10.30
2023-01-28T17:44:11.745Z,8.80
2023-01-28T17:46:38.984Z,7.20
2023-01-28T17:49:06.146Z,7.60
2023-01-28T17:51:33.473Z,7.00
2023-01-28T17:54:00.633Z,7.30
2023-01-28T17:56:29.567Z,9.80
2023-01-28T17:58:59.303Z,14.50
2023-01-28T18:01:26.938Z,9.30
2023-01-28T18:03:55.772Z,7.80
2023-01-28T18:06:22.938Z,8.00
2023-01-28T18:08:50.157Z,18.20
2023-01-28T18:11:19.700Z,18.40
2023-01-28T18:13:47.328Z,30.70
2023-01-28T18:16:18.180Z,23.80
2023-01-28T18:18:46.082Z,28.20
2023-01-28T18:21:51.255Z,38.70
2023-01-28T18:24:19.813Z,38.50
2023-01-28T18:26:47.594Z,34.20
2023-01-28T18:29:17.172Z,41.50
2023-01-28T18:31:44.654Z,89.20
2023-01-28T18:34:11.939Z,53.60
2023-01-28T18:36:39.118Z,27.90
2023-01-28T18:39:06.329Z,18.70
2023-01-28T18:41:33.452Z,20.90
2023-01-28T18:44:00.573Z,23.10
2023-01-28T18:46:27.753Z,24.30
2023-01-28T18:48:56.868Z,26.90
2023-01-28T18:51:31.217Z,38.90
2023-01-28T18:54:03.867Z,27.50
2023-01-28T18:56:32.339Z,26.20
2023-01-28T18:59:02.021Z,32.50
2023-01-28T19:01:30.136Z,23.30
2023-01-28T19:03:58.501Z,17.10
2023-01-28T19:06:27.589Z,26.20
2023-01-28T19:08:57.250Z,23.10
2023-01-28T19:11:26.102Z,240.80
2023-01-28T19:13:53.933Z,216.70
2023-01-28T19:16:22.065Z,95.40
2023-01-28T19:18:59.979Z,77.90
2023-01-28T19:21:28.688Z,185.30
2023-01-28T19:23:58.754Z,53.90
2023-01-28T19:26:27.171Z,306.40
2023-01-28T19:28:54.579Z,500.30
2023-01-28T19:31:23.011Z,359.80
2023-01-28T19:33:58.372Z,343.00
2023-01-28T19:36:27.582Z,217.60
2023-01-28T19:39:06.237Z,126.50
2023-01-28T19:41:33.543Z,104.20
2023-01-28T19:44:00.841Z,219.80
2023-01-28T19:46:28.790Z,168.00
2023-01-28T19:48:56.061Z,119.90
2023-01-28T19:51:24.007Z,117.60
2023-01-28T19:53:53.278Z,153.00
2023-01-28T19:56:24.541Z,176.00
2023-01-28T19:58:53.865Z,224.80
2023-01-28T20:01:25.781Z,201.40
2023-01-28T20:03:56.188Z,53.40
2023-01-28T20:06:29.803Z,44.80
2023-01-28T20:09:06.065Z,30.00
2023-01-28T20:11:34.016Z,28.20
2023-01-28T20:14:01.498Z,26.60
2023-01-28T20:16:30.499Z,36.40
2023-01-28T20:19:03.575Z,50.40
2023-01-28T20:21:32.757Z,39.30
2023-01-28T20:24:02.276Z,65.80
2023-01-28T20:26:32.261Z,17.90
2023-01-28T20:29:10.496Z,33.90
2023-01-28T20:31:39.263Z,40.10
2023-01-28T20:34:06.889Z,31.50
2023-01-28T20:36:34.168Z,19.80
2023-01-28T20:39:01.259Z,13.90
2023-01-28T20:41:28.487Z,20.60
2023-01-28T20:43:56.407Z,18.60
2023-01-28T20:46:26.605Z,49.00
2023-01-28T20:48:55.582Z,252.50
2023-01-28T20:51:25.557Z,52.70
2023-01-28T20:53:53.380Z,110.60
2023-01-28T20:56:23.666Z,28.90
2023-01-28T20:58:56.547Z,280.30
2023-01-28T21:01:27.301Z,38.20
2023-01-28T21:03:56.111Z,210.50
2023-01-28T21:06:24.419Z,83.00
2023-01-28T21:08:53.247Z,106.80
2023-01-28T21:11:22.110Z,36.20
2023-01-28T21:13:49.756Z,48.00
2023-01-28T21:16:17.562Z,22.70
2023-01-28T21:18:44.930Z,23.60
2023-01-28T21:21:28.556Z,35.20
2023-01-28T21:23:57.956Z,29.20
2023-01-28T21:26:25.987Z,39.50
2023-01-28T21:28:53.128Z,26.60
2023-01-28T21:31:22.671Z,17.60
2023-01-28T21:33:50.948Z,30.50
2023-01-28T21:36:19.246Z,34.40
2023-01-28T21:38:54.099Z,19.60
2023-01-28T21:41:21.304Z,25.20
2023-01-28T21:43:53.905Z,21.50
2023-01-28T21:46:22.831Z,43.60
2023-01-28T21:48:53.973Z,27.50
2023-01-28T21:51:36.458Z,19.90
2023-01-28T21:54:05.344Z,29.20
2023-01-28T21:56:32.405Z,25.00
2023-01-28T21:59:34.882Z,41.00
2023-01-28T22:02:13.189Z,61.50
2023-01-28T22:04:46.373Z,39.90
2023-01-28T22:07:17.412Z,75.10
2023-01-28T22:09:46.162Z,171.90
2023-01-28T22:12:15.380Z,126.20
2023-01-28T22:14:43.778Z,157.10
2023-01-28T22:17:12.112Z,170.90
2023-01-28T22:19:39.533Z,137.30
2023-01-28T22:22:07.332Z,64.10
2023-01-28T22:24:34.561Z,164.80
2023-01-28T22:27:01.869Z,63.20
2023-01-28T22:29:29.041Z,144.30
2023-01-28T22:31:56.317Z,45.10
2023-01-28T22:34:23.549Z,138.90
2023-01-28T22:36:51.663Z,42.60
2023-01-28T22:39:18.853Z,60.20
2023-01-28T22:41:46.847Z,46.70
2023-01-28T22:44:14.681Z,34.20
2023-01-28T22:46:42.212Z,25.00
2023-01-28T22:49:11.749Z,31.50
2023-01-28T22:51:38.745Z,50.20
2023-01-28T22:54:05.883Z,50.50
2023-01-28T22:56:33.038Z,24.10
2023-01-28T22:59:02.349Z,29.80
2023-01-28T23:01:29.611Z,38.10
2023-01-28T23:03:56.954Z,23.30
2023-01-28T23:06:26.138Z,29.20
2023-01-28T23:08:54.441Z,26.30
2023-01-28T23:11:25.588Z,23.40
2023-01-28T23:14:17.254Z,29.50
2023-01-28T23:17:03.781Z,28.40
2023-01-28T23:19:50.075Z,23.10
2023-01-28T23:22:42.457Z,26.90
2023-01-28T23:25:09.727Z,24.50
2023-01-28T23:27:36.962Z,27.00
2023-01-28T23:30:10.315Z,35.70
2023-01-28T23:32:45.563Z,23.70
2023-01-28T23:35:13.385Z,20.70
2023-01-28T23:37:41.619Z,20.80
2023-01-28T23:40:09.389Z,17.70
2023-01-28T23:42:36.576Z,20.20
2023-01-28T23:45:05.255Z,19.80
2023-01-28T23:47:32.478Z,38.60
2023-01-28T23:49:59.814Z,18.30
2023-01-28T23:52:26.958Z,21.90
2023-01-28T23:54:54.267Z,22.60
2023-01-28T23:57:21.554Z,39.50
2023-01-28T23:59:48.608Z,28.80
